sensor_id;sensor_type;location;lat;lon;timestamp;temperature;humidity
24560;DHT22;12727;49.934;8.656;2023-10-31T00:01:52;12.40;99.90
24560;DHT22;12727;49.934;8.656;2023-10-31T00:04:18;12.40;99.90
24560;DHT22;12727;49.934;8.656;2023-10-31T00:06:43;12.30;99.90
24560;DHT22;12727;49.934;8.656;2023-10-31T00:09:09;12.20;99.90
24560;DHT22;12727;49.934;8.656;2023-10-31T00:11:36;12.20;99.90
24560;DHT22;12727;49.934;8.656;2023-10-31T00:14:02;12.20;99.90
24560;DHT22;12727;49.934;8.656;2023-10-31T00:16:27;12.10;99.90
24560;DHT22;12727;49.934;8.656;2023-10-31T00:18:53;12.10;99.90
24560;DHT22;12727;49.934;8.656;2023-10-31T00:21:19;12.10;99.90
24560;DHT22;12727;49.934;8.656;2023-10-31T00:26:19;12.00;99.90
24560;DHT22;12727;49.934;8.656;2023-10-31T00:28:45;12.00;99.90
24560;DHT22;12727;49.934;8.656;2023-10-31T00:31:10;12.00;99.90
24560;DHT22;12727;49.934;8.656;2023-10-31T00:33:37;11.90;99.90
24560;DHT22;12727;49.934;8.656;2023-10-31T00:36:03;12.00;99.90
24560;DHT22;12727;49.934;8.656;2023-10-31T00:38:28;12.00;99.90
24560;DHT22;12727;49.934;8.656;2023-10-31T00:40:54;12.00;99.90
24560;DHT22;12727;49.934;8.656;2023-10-31T00:43:20;12.00;99.90
24560;DHT22;12727;49.934;8.656;2023-10-31T00:45:45;11.90;99.90
24560;DHT22;12727;49.934;8.656;2023-10-31T00:48:11;11.80;99.90
24560;DHT22;12727;49.934;8.656;2023-10-31T00:50:36;11.80;99.90
24560;DHT22;12727;49.934;8.656;2023-10-31T00:53:02;11.80;99.90
24560;DHT22;12727;49.934;8.656;2023-10-31T00:55:27;11.70;99.90
24560;DHT22;12727;49.934;8.656;2023-10-31T00:57:53;11.70;99.90
24560;DHT22;12727;49.934;8.656;2023-10-31T01:00:19;11.70;99.90
24560;DHT22;12727;49.934;8.656;2023-10-31T01:02:44;11.60;99.90
24560;DHT22;12727;49.934;8.656;2023-10-31T01:05:11;11.50;99.90
24560;DHT22;12727;49.934;8.656;2023-10-31T01:07:36;11.60;99.90
24560;DHT22;12727;49.934;8.656;2023-10-31T01:10:03;11.60;99.90
24560;DHT22;12727;49.934;8.656;2023-10-31T01:12:28;11.60;99.90
24560;DHT22;12727;49.934;8.656;2023-10-31T01:14:55;11.50;99.90
24560;DHT22;12727;49.934;8.656;2023-10-31T01:17:21;11.50;99.90
24560;DHT22;12727;49.934;8.656;2023-10-31T01:19:47;11.50;99.90
24560;DHT22;12727;49.934;8.656;2023-10-31T01:22:12;11.50;99.90
24560;DHT22;12727;49.934;8.656;2023-10-31T01:24:38;11.50;99.90
24560;DHT22;12727;49.934;8.656;2023-10-31T01:27:03;11.60;99.90
24560;DHT22;12727;49.934;8.656;2023-10-31T01:29:29;11.40;99.90
24560;DHT22;12727;49.934;8.656;2023-10-31T01:31:55;11.30;99.90
24560;DHT22;12727;49.934;8.656;2023-10-31T01:34:20;11.20;99.90
24560;DHT22;12727;49.934;8.656;2023-10-31T01:36:52;11.10;99.90
24560;DHT22;12727;49.934;8.656;2023-10-31T01:39:18;11.10;99.90
24560;DHT22;12727;49.934;8.656;2023-10-31T01:41:43;11.00;99.90
24560;DHT22;12727;49.934;8.656;2023-10-31T01:44:10;11.00;99.90
24560;DHT22;12727;49.934;8.656;2023-10-31T01:46:35;10.90;99.90
24560;DHT22;12727;49.934;8.656;2023-10-31T01:49:01;10.90;99.90
24560;DHT22;12727;49.934;8.656;2023-10-31T01:51:28;10.80;99.90
24560;DHT22;12727;49.934;8.656;2023-10-31T01:53:54;10.70;99.90
24560;DHT22;12727;49.934;8.656;2023-10-31T01:56:21;10.70;99.90
24560;DHT22;12727;49.934;8.656;2023-10-31T01:58:47;10.70;99.90
24560;DHT22;12727;49.934;8.656;2023-10-31T02:01:13;10.80;99.90
24560;DHT22;12727;49.934;8.656;2023-10-31T02:03:39;10.90;99.90
24560;DHT22;12727;49.934;8.656;2023-10-31T02:06:04;10.90;99.90
24560;DHT22;12727;49.934;8.656;2023-10-31T02:08:30;11.00;99.90
24560;DHT22;12727;49.934;8.656;2023-10-31T02:10:56;11.00;99.90
24560;DHT22;12727;49.934;8.656;2023-10-31T02:13:22;11.00;99.90
24560;DHT22;12727;49.934;8.656;2023-10-31T02:15:48;11.00;99.90
24560;DHT22;12727;49.934;8.656;2023-10-31T02:18:14;10.90;99.90
24560;DHT22;12727;49.934;8.656;2023-10-31T02:20:40;10.90;99.90
24560;DHT22;12727;49.934;8.656;2023-10-31T02:23:05;10.80;99.90
24560;DHT22;12727;49.934;8.656;2023-10-31T02:25:43;10.70;99.90
24560;DHT22;12727;49.934;8.656;2023-10-31T02:28:08;10.70;99.90
24560;DHT22;12727;49.934;8.656;2023-10-31T02:30:35;10.60;99.90
24560;DHT22;12727;49.934;8.656;2023-10-31T02:33:01;10.60;99.90
24560;DHT22;12727;49.934;8.656;2023-10-31T02:35:27;10.50;99.90
24560;DHT22;12727;49.934;8.656;2023-10-31T02:37:52;10.40;99.90
24560;DHT22;12727;49.934;8.656;2023-10-31T02:40:18;10.40;99.90
24560;DHT22;12727;49.934;8.656;2023-10-31T02:42:44;10.40;99.90
24560;DHT22;12727;49.934;8.656;2023-10-31T02:45:10;10.50;99.90
24560;DHT22;12727;49.934;8.656;2023-10-31T02:47:35;10.50;99.90
24560;DHT22;12727;49.934;8.656;2023-10-31T02:50:01;10.50;99.90
24560;DHT22;12727;49.934;8.656;2023-10-31T02:52:26;10.40;99.90
24560;DHT22;12727;49.934;8.656;2023-10-31T02:54:52;10.30;99.90
24560;DHT22;12727;49.934;8.656;2023-10-31T02:57:18;10.30;99.90
24560;DHT22;12727;49.934;8.656;2023-10-31T02:59:43;10.20;99.90
24560;DHT22;12727;49.934;8.656;2023-10-31T03:02:09;10.20;99.90
24560;DHT22;12727;49.934;8.656;2023-10-31T03:04:36;10.20;99.90
24560;DHT22;12727;49.934;8.656;2023-10-31T03:07:02;10.20;99.90
24560;DHT22;12727;49.934;8.656;2023-10-31T03:09:27;10.10;99.90
24560;DHT22;12727;49.934;8.656;2023-10-31T03:11:53;10.20;99.90
24560;DHT22;12727;49.934;8.656;2023-10-31T03:14:18;10.20;99.90
24560;DHT22;12727;49.934;8.656;2023-10-31T03:16:44;10.20;99.90
24560;DHT22;12727;49.934;8.656;2023-10-31T03:21:37;10.10;99.90
24560;DHT22;12727;49.934;8.656;2023-10-31T03:24:03;10.20;99.90
24560;DHT22;12727;49.934;8.656;2023-10-31T03:26:29;10.20;99.90
24560;DHT22;12727;49.934;8.656;2023-10-31T03:28:55;10.20;99.90
24560;DHT22;12727;49.934;8.656;2023-10-31T03:31:23;10.20;99.90
24560;DHT22;12727;49.934;8.656;2023-10-31T03:33:49;10.30;99.90
24560;DHT22;12727;49.934;8.656;2023-10-31T03:36:14;10.20;99.90
24560;DHT22;12727;49.934;8.656;2023-10-31T03:38:40;10.20;99.90
24560;DHT22;12727;49.934;8.656;2023-10-31T03:41:05;10.30;99.90
24560;DHT22;12727;49.934;8.656;2023-10-31T03:43:31;10.30;99.90
24560;DHT22;12727;49.934;8.656;2023-10-31T03:45:57;10.40;99.90
24560;DHT22;12727;49.934;8.656;2023-10-31T03:48:22;10.40;99.90
24560;DHT22;12727;49.934;8.656;2023-10-31T03:50:48;10.50;99.90
24560;DHT22;12727;49.934;8.656;2023-10-31T03:53:15;10.50;99.90
24560;DHT22;12727;49.934;8.656;2023-10-31T03:55:40;10.50;99.90
24560;DHT22;12727;49.934;8.656;2023-10-31T03:58:06;10.60;99.90
24560;DHT22;12727;49.934;8.656;2023-10-31T04:00:32;10.60;99.90
24560;DHT22;12727;49.934;8.656;2023-10-31T04:02:57;10.60;99.90
24560;DHT22;12727;49.934;8.656;2023-10-31T04:05:23;10.60;99.90
24560;DHT22;12727;49.934;8.656;2023-10-31T04:07:49;10.60;99.90
24560;DHT22;12727;49.934;8.656;2023-10-31T04:10:15;10.60;99.90
24560;DHT22;12727;49.934;8.656;2023-10-31T04:12:41;10.50;99.90
24560;DHT22;12727;49.934;8.656;2023-10-31T04:15:08;10.60;99.90
24560;DHT22;12727;49.934;8.656;2023-10-31T04:17:34;10.50;99.90
24560;DHT22;12727;49.934;8.656;2023-10-31T04:19:59;10.50;99.90
24560;DHT22;12727;49.934;8.656;2023-10-31T04:22:25;10.50;99.90
24560;DHT22;12727;49.934;8.656;2023-10-31T04:24:51;10.50;99.90
24560;DHT22;12727;49.934;8.656;2023-10-31T04:27:17;10.60;99.90
24560;DHT22;12727;49.934;8.656;2023-10-31T04:29:43;10.60;99.90
24560;DHT22;12727;49.934;8.656;2023-10-31T04:32:08;10.60;99.90
24560;DHT22;12727;49.934;8.656;2023-10-31T04:34:34;10.70;99.90
24560;DHT22;12727;49.934;8.656;2023-10-31T04:36:59;10.70;99.90
24560;DHT22;12727;49.934;8.656;2023-10-31T04:39:25;10.70;99.90
24560;DHT22;12727;49.934;8.656;2023-10-31T04:41:56;10.60;99.90
24560;DHT22;12727;49.934;8.656;2023-10-31T04:44:22;10.60;99.90
24560;DHT22;12727;49.934;8.656;2023-10-31T04:46:48;10.60;99.90
24560;DHT22;12727;49.934;8.656;2023-10-31T04:49:13;10.70;99.90
24560;DHT22;12727;49.934;8.656;2023-10-31T04:51:39;10.70;99.90
24560;DHT22;12727;49.934;8.656;2023-10-31T04:54:05;10.70;99.90
24560;DHT22;12727;49.934;8.656;2023-10-31T04:56:31;10.80;99.90
24560;DHT22;12727;49.934;8.656;2023-10-31T04:58:59;10.80;99.90
24560;DHT22;12727;49.934;8.656;2023-10-31T05:01:25;10.80;99.90
24560;DHT22;12727;49.934;8.656;2023-10-31T05:03:51;10.70;99.90
24560;DHT22;12727;49.934;8.656;2023-10-31T05:06:21;10.70;99.90
24560;DHT22;12727;49.934;8.656;2023-10-31T05:08:47;10.80;99.90
24560;DHT22;12727;49.934;8.656;2023-10-31T05:11:13;10.80;99.90
24560;DHT22;12727;49.934;8.656;2023-10-31T05:13:39;10.90;99.90
24560;DHT22;12727;49.934;8.656;2023-10-31T05:16:05;10.90;99.90
24560;DHT22;12727;49.934;8.656;2023-10-31T05:18:30;10.80;99.90
24560;DHT22;12727;49.934;8.656;2023-10-31T05:20:56;10.80;99.90
24560;DHT22;12727;49.934;8.656;2023-10-31T05:23:21;10.80;99.90
24560;DHT22;12727;49.934;8.656;2023-10-31T05:25:47;10.80;99.90
24560;DHT22;12727;49.934;8.656;2023-10-31T05:28:13;10.80;99.90
24560;DHT22;12727;49.934;8.656;2023-10-31T05:30:38;10.80;99.90
24560;DHT22;12727;49.934;8.656;2023-10-31T05:33:04;10.80;99.90
24560;DHT22;12727;49.934;8.656;2023-10-31T05:35:30;10.80;99.90
24560;DHT22;12727;49.934;8.656;2023-10-31T05:37:56;10.80;99.90
24560;DHT22;12727;49.934;8.656;2023-10-31T05:40:21;10.90;99.90
24560;DHT22;12727;49.934;8.656;2023-10-31T05:42:50;10.80;99.90
24560;DHT22;12727;49.934;8.656;2023-10-31T05:45:15;10.80;99.90
24560;DHT22;12727;49.934;8.656;2023-10-31T05:47:41;10.80;99.90
24560;DHT22;12727;49.934;8.656;2023-10-31T05:50:07;10.80;99.90
24560;DHT22;12727;49.934;8.656;2023-10-31T05:52:32;10.70;99.90
24560;DHT22;12727;49.934;8.656;2023-10-31T05:54:58;10.80;99.90
24560;DHT22;12727;49.934;8.656;2023-10-31T05:57:24;10.80;99.90
24560;DHT22;12727;49.934;8.656;2023-10-31T05:59:49;10.80;99.90
24560;DHT22;12727;49.934;8.656;2023-10-31T06:02:16;10.90;99.90
24560;DHT22;12727;49.934;8.656;2023-10-31T06:04:42;10.90;99.90
24560;DHT22;12727;49.934;8.656;2023-10-31T06:07:07;10.90;99.90
24560;DHT22;12727;49.934;8.656;2023-10-31T06:09:33;11.00;99.90
24560;DHT22;12727;49.934;8.656;2023-10-31T06:12:13;10.90;99.90
24560;DHT22;12727;49.934;8.656;2023-10-31T06:14:39;10.90;99.90
24560;DHT22;12727;49.934;8.656;2023-10-31T06:17:49;10.90;99.90
24560;DHT22;12727;49.934;8.656;2023-10-31T06:20:57;11.00;99.90
24560;DHT22;12727;49.934;8.656;2023-10-31T06:23:29;10.80;99.90
24560;DHT22;12727;49.934;8.656;2023-10-31T06:25:57;10.80;99.90
24560;DHT22;12727;49.934;8.656;2023-10-31T06:28:31;10.80;99.90
24560;DHT22;12727;49.934;8.656;2023-10-31T06:31:00;10.90;99.90
24560;DHT22;12727;49.934;8.656;2023-10-31T06:33:29;10.80;99.90
24560;DHT22;12727;49.934;8.656;2023-10-31T06:35:57;10.80;99.90
24560;DHT22;12727;49.934;8.656;2023-10-31T06:38:28;10.80;99.90
24560;DHT22;12727;49.934;8.656;2023-10-31T06:40:54;10.90;99.90
24560;DHT22;12727;49.934;8.656;2023-10-31T06:43:22;10.80;99.90
24560;DHT22;12727;49.934;8.656;2023-10-31T06:45:48;10.80;99.90
24560;DHT22;12727;49.934;8.656;2023-10-31T06:48:17;10.80;99.90
24560;DHT22;12727;49.934;8.656;2023-10-31T06:50:42;10.80;99.90
24560;DHT22;12727;49.934;8.656;2023-10-31T06:53:11;10.80;99.90
24560;DHT22;12727;49.934;8.656;2023-10-31T06:55:37;10.80;99.90
24560;DHT22;12727;49.934;8.656;2023-10-31T06:58:06;10.80;99.90
24560;DHT22;12727;49.934;8.656;2023-10-31T07:00:38;10.90;99.90
24560;DHT22;12727;49.934;8.656;2023-10-31T07:03:07;10.90;99.90
24560;DHT22;12727;49.934;8.656;2023-10-31T07:05:40;11.00;99.90
24560;DHT22;12727;49.934;8.656;2023-10-31T07:08:09;10.90;99.90
24560;DHT22;12727;49.934;8.656;2023-10-31T07:10:37;10.90;99.90
24560;DHT22;12727;49.934;8.656;2023-10-31T07:13:03;10.80;99.90
24560;DHT22;12727;49.934;8.656;2023-10-31T07:15:29;10.80;99.90
24560;DHT22;12727;49.934;8.656;2023-10-31T07:17:55;10.80;99.90
24560;DHT22;12727;49.934;8.656;2023-10-31T07:20:20;10.70;99.90
24560;DHT22;12727;49.934;8.656;2023-10-31T07:22:46;10.80;99.90
24560;DHT22;12727;49.934;8.656;2023-10-31T07:25:11;10.80;99.90
24560;DHT22;12727;49.934;8.656;2023-10-31T07:27:37;10.90;99.90
24560;DHT22;12727;49.934;8.656;2023-10-31T07:30:03;10.90;99.90
24560;DHT22;12727;49.934;8.656;2023-10-31T07:32:31;10.80;99.90
24560;DHT22;12727;49.934;8.656;2023-10-31T07:34:57;10.80;99.90
24560;DHT22;12727;49.934;8.656;2023-10-31T07:37:23;10.80;99.90
24560;DHT22;12727;49.934;8.656;2023-10-31T07:39:48;10.70;99.90
24560;DHT22;12727;49.934;8.656;2023-10-31T07:42:16;10.70;99.90
24560;DHT22;12727;49.934;8.656;2023-10-31T07:44:41;10.70;99.90
24560;DHT22;12727;49.934;8.656;2023-10-31T07:47:07;10.70;99.90
24560;DHT22;12727;49.934;8.656;2023-10-31T07:49:40;10.80;99.90
24560;DHT22;12727;49.934;8.656;2023-10-31T07:52:10;10.80;99.90
24560;DHT22;12727;49.934;8.656;2023-10-31T07:54:56;10.90;99.90
24560;DHT22;12727;49.934;8.656;2023-10-31T07:57:21;10.90;99.90
24560;DHT22;12727;49.934;8.656;2023-10-31T07:59:50;10.90;99.90
24560;DHT22;12727;49.934;8.656;2023-10-31T08:02:16;10.90;99.90
24560;DHT22;12727;49.934;8.656;2023-10-31T08:04:42;10.90;99.90
24560;DHT22;12727;49.934;8.656;2023-10-31T08:07:07;10.90;99.90
24560;DHT22;12727;49.934;8.656;2023-10-31T08:09:35;10.90;99.90
24560;DHT22;12727;49.934;8.656;2023-10-31T08:12:01;10.90;99.90
24560;DHT22;12727;49.934;8.656;2023-10-31T08:14:36;11.00;99.90
24560;DHT22;12727;49.934;8.656;2023-10-31T08:17:02;11.10;99.90
24560;DHT22;12727;49.934;8.656;2023-10-31T08:19:28;11.20;99.90
24560;DHT22;12727;49.934;8.656;2023-10-31T08:22:03;11.20;99.90
24560;DHT22;12727;49.934;8.656;2023-10-31T08:24:32;11.30;99.90
24560;DHT22;12727;49.934;8.656;2023-10-31T08:27:00;11.30;99.90
24560;DHT22;12727;49.934;8.656;2023-10-31T08:32:24;11.20;99.90
24560;DHT22;12727;49.934;8.656;2023-10-31T08:34:52;11.20;99.90
24560;DHT22;12727;49.934;8.656;2023-10-31T08:40:36;11.30;99.90
24560;DHT22;12727;49.934;8.656;2023-10-31T08:43:09;11.40;99.90
24560;DHT22;12727;49.934;8.656;2023-10-31T08:45:35;11.50;99.90
24560;DHT22;12727;49.934;8.656;2023-10-31T08:48:04;11.50;99.90
24560;DHT22;12727;49.934;8.656;2023-10-31T08:50:29;11.60;99.90
24560;DHT22;12727;49.934;8.656;2023-10-31T08:52:55;11.60;99.90
24560;DHT22;12727;49.934;8.656;2023-10-31T08:55:21;11.70;99.90
24560;DHT22;12727;49.934;8.656;2023-10-31T08:57:49;11.70;99.90
24560;DHT22;12727;49.934;8.656;2023-10-31T09:00:18;11.80;99.90
24560;DHT22;12727;49.934;8.656;2023-10-31T09:02:44;11.90;99.90
24560;DHT22;12727;49.934;8.656;2023-10-31T09:05:09;11.90;99.90
24560;DHT22;12727;49.934;8.656;2023-10-31T09:07:35;12.00;99.90
24560;DHT22;12727;49.934;8.656;2023-10-31T09:12:54;12.10;99.90
24560;DHT22;12727;49.934;8.656;2023-10-31T09:15:26;12.10;99.90
24560;DHT22;12727;49.934;8.656;2023-10-31T09:17:55;12.00;99.90
24560;DHT22;12727;49.934;8.656;2023-10-31T09:20:20;12.10;99.90
24560;DHT22;12727;49.934;8.656;2023-10-31T09:22:48;12.10;99.90
24560;DHT22;12727;49.934;8.656;2023-10-31T09:25:14;12.10;99.90
24560;DHT22;12727;49.934;8.656;2023-10-31T09:27:41;12.20;99.90
24560;DHT22;12727;49.934;8.656;2023-10-31T09:30:24;12.30;99.90
24560;DHT22;12727;49.934;8.656;2023-10-31T09:33:05;12.30;99.90
24560;DHT22;12727;49.934;8.656;2023-10-31T09:35:31;12.30;99.90
24560;DHT22;12727;49.934;8.656;2023-10-31T09:38:02;12.50;99.90
24560;DHT22;12727;49.934;8.656;2023-10-31T09:40:28;12.40;99.90
24560;DHT22;12727;49.934;8.656;2023-10-31T09:42:54;12.50;99.90
24560;DHT22;12727;49.934;8.656;2023-10-31T09:45:22;12.50;99.90
24560;DHT22;12727;49.934;8.656;2023-10-31T09:47:48;12.50;99.90
24560;DHT22;12727;49.934;8.656;2023-10-31T09:53:16;12.60;99.90
24560;DHT22;12727;49.934;8.656;2023-10-31T09:55:46;12.60;99.90
24560;DHT22;12727;49.934;8.656;2023-10-31T09:58:12;12.70;99.90
24560;DHT22;12727;49.934;8.656;2023-10-31T10:00:38;12.70;99.90
24560;DHT22;12727;49.934;8.656;2023-10-31T10:03:07;12.60;99.90
24560;DHT22;12727;49.934;8.656;2023-10-31T10:05:37;12.60;99.90
24560;DHT22;12727;49.934;8.656;2023-10-31T10:08:06;12.60;99.90
24560;DHT22;12727;49.934;8.656;2023-10-31T10:10:35;12.50;99.90
24560;DHT22;12727;49.934;8.656;2023-10-31T10:13:05;12.50;99.90
24560;DHT22;12727;49.934;8.656;2023-10-31T10:15:42;12.40;99.90
24560;DHT22;12727;49.934;8.656;2023-10-31T10:18:24;12.50;99.90
24560;DHT22;12727;49.934;8.656;2023-10-31T10:21:01;12.50;99.90
24560;DHT22;12727;49.934;8.656;2023-10-31T10:23:28;12.40;99.90
24560;DHT22;12727;49.934;8.656;2023-10-31T10:29:32;12.40;99.90
24560;DHT22;12727;49.934;8.656;2023-10-31T10:32:00;12.50;99.90
24560;DHT22;12727;49.934;8.656;2023-10-31T10:34:27;12.60;99.90
24560;DHT22;12727;49.934;8.656;2023-10-31T10:36:55;12.70;99.90
24560;DHT22;12727;49.934;8.656;2023-10-31T10:39:29;12.90;99.90
24560;DHT22;12727;49.934;8.656;2023-10-31T10:41:55;13.00;99.90
24560;DHT22;12727;49.934;8.656;2023-10-31T10:44:37;13.00;99.90
24560;DHT22;12727;49.934;8.656;2023-10-31T10:47:06;13.10;99.90
24560;DHT22;12727;49.934;8.656;2023-10-31T10:53:21;13.10;99.90
24560;DHT22;12727;49.934;8.656;2023-10-31T10:59:41;13.20;99.90
24560;DHT22;12727;49.934;8.656;2023-10-31T11:02:19;13.30;99.90
24560;DHT22;12727;49.934;8.656;2023-10-31T11:04:45;13.30;99.90
24560;DHT22;12727;49.934;8.656;2023-10-31T11:07:13;13.30;99.90
24560;DHT22;12727;49.934;8.656;2023-10-31T11:09:45;13.40;99.90
24560;DHT22;12727;49.934;8.656;2023-10-31T11:12:26;13.40;99.90
24560;DHT22;12727;49.934;8.656;2023-10-31T11:14:52;13.40;99.90
24560;DHT22;12727;49.934;8.656;2023-10-31T11:17:24;13.50;99.90
24560;DHT22;12727;49.934;8.656;2023-10-31T11:19:53;13.50;99.90
24560;DHT22;12727;49.934;8.656;2023-10-31T11:22:40;13.50;99.90
24560;DHT22;12727;49.934;8.656;2023-10-31T11:25:07;13.60;99.90
24560;DHT22;12727;49.934;8.656;2023-10-31T11:30:29;13.40;99.90
24560;DHT22;12727;49.934;8.656;2023-10-31T11:32:58;13.40;99.90
24560;DHT22;12727;49.934;8.656;2023-10-31T11:35:24;13.40;99.90
24560;DHT22;12727;49.934;8.656;2023-10-31T11:38:10;13.50;99.90
24560;DHT22;12727;49.934;8.656;2023-10-31T11:40:38;13.60;99.90
24560;DHT22;12727;49.934;8.656;2023-10-31T11:43:11;13.80;99.90
24560;DHT22;12727;49.934;8.656;2023-10-31T11:45:41;13.80;99.90
24560;DHT22;12727;49.934;8.656;2023-10-31T11:48:09;13.80;99.90
24560;DHT22;12727;49.934;8.656;2023-10-31T11:50:37;13.80;99.90
24560;DHT22;12727;49.934;8.656;2023-10-31T11:53:06;13.80;99.90
24560;DHT22;12727;49.934;8.656;2023-10-31T11:55:52;13.80;99.90
24560;DHT22;12727;49.934;8.656;2023-10-31T11:58:24;13.90;99.90
24560;DHT22;12727;49.934;8.656;2023-10-31T12:00:53;14.00;99.90
24560;DHT22;12727;49.934;8.656;2023-10-31T12:03:26;14.10;99.90
24560;DHT22;12727;49.934;8.656;2023-10-31T12:05:56;14.20;99.90
24560;DHT22;12727;49.934;8.656;2023-10-31T12:08:36;14.20;99.90
24560;DHT22;12727;49.934;8.656;2023-10-31T12:13:29;14.50;99.90
24560;DHT22;12727;49.934;8.656;2023-10-31T12:15:54;14.40;99.90
24560;DHT22;12727;49.934;8.656;2023-10-31T12:18:20;14.30;99.90
24560;DHT22;12727;49.934;8.656;2023-10-31T12:20:50;14.30;99.90
24560;DHT22;12727;49.934;8.656;2023-10-31T12:23:17;14.20;99.90
24560;DHT22;12727;49.934;8.656;2023-10-31T12:25:47;14.30;99.90
24560;DHT22;12727;49.934;8.656;2023-10-31T12:28:24;14.30;99.90
24560;DHT22;12727;49.934;8.656;2023-10-31T12:30:54;14.20;99.90
24560;DHT22;12727;49.934;8.656;2023-10-31T12:33:20;14.10;99.90
24560;DHT22;12727;49.934;8.656;2023-10-31T12:35:52;14.20;99.90
24560;DHT22;12727;49.934;8.656;2023-10-31T12:38:19;14.30;99.90
24560;DHT22;12727;49.934;8.656;2023-10-31T12:40:45;14.50;99.90
24560;DHT22;12727;49.934;8.656;2023-10-31T12:43:11;14.60;99.90
24560;DHT22;12727;49.934;8.656;2023-10-31T12:45:37;14.80;99.90
24560;DHT22;12727;49.934;8.656;2023-10-31T12:48:07;14.80;99.90
24560;DHT22;12727;49.934;8.656;2023-10-31T12:50:35;14.80;99.90
24560;DHT22;12727;49.934;8.656;2023-10-31T12:53:06;14.80;99.90
24560;DHT22;12727;49.934;8.656;2023-10-31T12:55:41;14.90;99.90
24560;DHT22;12727;49.934;8.656;2023-10-31T12:58:08;15.00;99.90
24560;DHT22;12727;49.934;8.656;2023-10-31T13:00:36;15.10;99.90
24560;DHT22;12727;49.934;8.656;2023-10-31T13:03:06;15.20;99.90
24560;DHT22;12727;49.934;8.656;2023-10-31T13:05:33;15.40;99.90
24560;DHT22;12727;49.934;8.656;2023-10-31T13:07:59;15.50;99.90
24560;DHT22;12727;49.934;8.656;2023-10-31T13:10:30;15.30;99.90
24560;DHT22;12727;49.934;8.656;2023-10-31T13:12:58;15.10;99.90
24560;DHT22;12727;49.934;8.656;2023-10-31T13:15:23;15.00;99.90
24560;DHT22;12727;49.934;8.656;2023-10-31T13:17:50;15.00;99.90
24560;DHT22;12727;49.934;8.656;2023-10-31T13:20:18;14.90;99.90
24560;DHT22;12727;49.934;8.656;2023-10-31T13:22:44;14.70;99.90
24560;DHT22;12727;49.934;8.656;2023-10-31T13:25:11;14.60;99.90
24560;DHT22;12727;49.934;8.656;2023-10-31T13:27:38;14.60;99.90
24560;DHT22;12727;49.934;8.656;2023-10-31T13:30:05;14.60;99.90
24560;DHT22;12727;49.934;8.656;2023-10-31T13:32:31;14.60;99.90
24560;DHT22;12727;49.934;8.656;2023-10-31T13:34:57;14.60;99.90
24560;DHT22;12727;49.934;8.656;2023-10-31T13:37:23;14.60;99.90
24560;DHT22;12727;49.934;8.656;2023-10-31T13:39:49;14.60;99.90
24560;DHT22;12727;49.934;8.656;2023-10-31T13:42:14;14.50;99.90
24560;DHT22;12727;49.934;8.656;2023-10-31T13:44:40;14.40;99.90
24560;DHT22;12727;49.934;8.656;2023-10-31T13:47:06;14.30;99.90
24560;DHT22;12727;49.934;8.656;2023-10-31T13:49:32;14.40;99.90
24560;DHT22;12727;49.934;8.656;2023-10-31T13:51:58;14.30;99.90
24560;DHT22;12727;49.934;8.656;2023-10-31T13:54:23;14.40;99.90
24560;DHT22;12727;49.934;8.656;2023-10-31T13:56:49;14.40;99.90
24560;DHT22;12727;49.934;8.656;2023-10-31T13:59:14;14.50;99.90
24560;DHT22;12727;49.934;8.656;2023-10-31T14:01:41;14.50;99.90
24560;DHT22;12727;49.934;8.656;2023-10-31T14:04:07;14.70;99.90
24560;DHT22;12727;49.934;8.656;2023-10-31T14:06:34;14.80;99.90
24560;DHT22;12727;49.934;8.656;2023-10-31T14:09:00;14.80;99.90
24560;DHT22;12727;49.934;8.656;2023-10-31T14:11:32;14.80;99.90
24560;DHT22;12727;49.934;8.656;2023-10-31T14:13:59;14.80;99.90
24560;DHT22;12727;49.934;8.656;2023-10-31T14:16:29;14.70;99.90
24560;DHT22;12727;49.934;8.656;2023-10-31T14:18:57;14.60;99.90
24560;DHT22;12727;49.934;8.656;2023-10-31T14:21:35;14.60;99.90
24560;DHT22;12727;49.934;8.656;2023-10-31T14:24:01;14.60;99.90
24560;DHT22;12727;49.934;8.656;2023-10-31T14:26:29;14.50;99.90
24560;DHT22;12727;49.934;8.656;2023-10-31T14:28:54;14.50;99.90
24560;DHT22;12727;49.934;8.656;2023-10-31T14:31:20;14.50;99.90
24560;DHT22;12727;49.934;8.656;2023-10-31T14:33:48;14.40;99.90
24560;DHT22;12727;49.934;8.656;2023-10-31T14:36:14;14.40;99.90
24560;DHT22;12727;49.934;8.656;2023-10-31T14:38:40;14.20;99.90
24560;DHT22;12727;49.934;8.656;2023-10-31T14:41:07;14.10;99.90
24560;DHT22;12727;49.934;8.656;2023-10-31T14:43:33;14.00;99.90
24560;DHT22;12727;49.934;8.656;2023-10-31T14:45:59;13.90;99.90
24560;DHT22;12727;49.934;8.656;2023-10-31T14:48:25;14.00;99.90
24560;DHT22;12727;49.934;8.656;2023-10-31T14:50:51;13.90;99.90
24560;DHT22;12727;49.934;8.656;2023-10-31T14:53:17;13.90;99.90
24560;DHT22;12727;49.934;8.656;2023-10-31T14:55:45;13.90;99.90
24560;DHT22;12727;49.934;8.656;2023-10-31T14:58:11;13.90;99.90
24560;DHT22;12727;49.934;8.656;2023-10-31T15:00:37;13.90;99.90
24560;DHT22;12727;49.934;8.656;2023-10-31T15:03:03;13.80;99.90
24560;DHT22;12727;49.934;8.656;2023-10-31T15:05:29;13.80;99.90
24560;DHT22;12727;49.934;8.656;2023-10-31T15:07:56;13.80;99.90
24560;DHT22;12727;49.934;8.656;2023-10-31T15:10:23;13.80;99.90
24560;DHT22;12727;49.934;8.656;2023-10-31T15:12:49;13.80;99.90
24560;DHT22;12727;49.934;8.656;2023-10-31T15:15:16;13.70;99.90
24560;DHT22;12727;49.934;8.656;2023-10-31T15:17:41;13.70;99.90
24560;DHT22;12727;49.934;8.656;2023-10-31T15:20:13;13.70;99.90
24560;DHT22;12727;49.934;8.656;2023-10-31T15:22:39;13.60;99.90
24560;DHT22;12727;49.934;8.656;2023-10-31T15:25:09;13.60;99.90
24560;DHT22;12727;49.934;8.656;2023-10-31T15:27:38;13.50;99.90
24560;DHT22;12727;49.934;8.656;2023-10-31T15:30:07;13.40;99.90
24560;DHT22;12727;49.934;8.656;2023-10-31T15:32:34;13.30;99.90
24560;DHT22;12727;49.934;8.656;2023-10-31T15:35:00;13.30;99.90
24560;DHT22;12727;49.934;8.656;2023-10-31T15:37:26;13.30;99.90
24560;DHT22;12727;49.934;8.656;2023-10-31T15:39:55;13.30;99.90
24560;DHT22;12727;49.934;8.656;2023-10-31T15:42:20;13.30;99.90
24560;DHT22;12727;49.934;8.656;2023-10-31T15:45:05;13.30;99.90
24560;DHT22;12727;49.934;8.656;2023-10-31T15:47:36;13.30;99.90
24560;DHT22;12727;49.934;8.656;2023-10-31T15:50:02;13.40;99.90
24560;DHT22;12727;49.934;8.656;2023-10-31T15:52:28;13.30;99.90
24560;DHT22;12727;49.934;8.656;2023-10-31T15:55:14;13.30;99.90
24560;DHT22;12727;49.934;8.656;2023-10-31T15:57:40;13.20;99.90
24560;DHT22;12727;49.934;8.656;2023-10-31T16:00:07;13.10;99.90
24560;DHT22;12727;49.934;8.656;2023-10-31T16:02:34;13.10;99.90
24560;DHT22;12727;49.934;8.656;2023-10-31T16:05:00;13.00;99.90
24560;DHT22;12727;49.934;8.656;2023-10-31T16:07:25;13.00;99.90